sensor_id;sensor_type;location;lat;lon;timestamp;temperature;humidity
23839;DHT22;12100;44.384;20.272;2022-11-15T00:02:09;7.20;99.90
23839;DHT22;12100;44.384;20.272;2022-11-15T00:04:35;7.10;99.90
23839;DHT22;12100;44.384;20.272;2022-11-15T00:07:01;7.20;99.90
23839;DHT22;12100;44.384;20.272;2022-11-15T00:09:27;7.10;99.90
23839;DHT22;12100;44.384;20.272;2022-11-15T00:11:52;7.10;99.90
23839;DHT22;12100;44.384;20.272;2022-11-15T00:14:18;7.10;99.90
23839;DHT22;12100;44.384;20.272;2022-11-15T00:16:44;7.10;99.90
23839;DHT22;12100;44.384;20.272;2022-11-15T00:19:10;7.10;99.90
23839;DHT22;12100;44.384;20.272;2022-11-15T00:21:36;7.10;99.90
23839;DHT22;12100;44.384;20.272;2022-11-15T00:24:01;7.10;99.90
23839;DHT22;12100;44.384;20.272;2022-11-15T00:26:27;7.10;99.90
23839;DHT22;12100;44.384;20.272;2022-11-15T00:28:53;7.10;99.90
23839;DHT22;12100;44.384;20.272;2022-11-15T00:31:19;7.10;99.90
23839;DHT22;12100;44.384;20.272;2022-11-15T00:33:44;7.00;99.90
23839;DHT22;12100;44.384;20.272;2022-11-15T00:36:11;7.10;99.90
23839;DHT22;12100;44.384;20.272;2022-11-15T00:38:38;7.00;99.90
23839;DHT22;12100;44.384;20.272;2022-11-15T00:41:05;7.10;99.90
23839;DHT22;12100;44.384;20.272;2022-11-15T00:43:32;7.10;99.90
23839;DHT22;12100;44.384;20.272;2022-11-15T00:45:58;7.10;99.90
23839;DHT22;12100;44.384;20.272;2022-11-15T00:48:24;7.10;99.90
23839;DHT22;12100;44.384;20.272;2022-11-15T00:50:50;7.10;99.90
23839;DHT22;12100;44.384;20.272;2022-11-15T00:53:16;7.00;99.90
23839;DHT22;12100;44.384;20.272;2022-11-15T00:55:43;7.10;99.90
23839;DHT22;12100;44.384;20.272;2022-11-15T00:58:09;7.00;99.90
23839;DHT22;12100;44.384;20.272;2022-11-15T01:00:35;7.00;99.90
23839;DHT22;12100;44.384;20.272;2022-11-15T01:03:01;7.00;99.90
23839;DHT22;12100;44.384;20.272;2022-11-15T01:05:27;7.00;99.90
23839;DHT22;12100;44.384;20.272;2022-11-15T01:07:54;7.00;99.90
23839;DHT22;12100;44.384;20.272;2022-11-15T01:10:21;6.90;99.90
23839;DHT22;12100;44.384;20.272;2022-11-15T01:12:47;6.90;99.90
23839;DHT22;12100;44.384;20.272;2022-11-15T01:15:13;6.90;99.90
23839;DHT22;12100;44.384;20.272;2022-11-15T01:17:38;6.90;99.90
23839;DHT22;12100;44.384;20.272;2022-11-15T01:20:05;6.90;99.90
23839;DHT22;12100;44.384;20.272;2022-11-15T01:22:31;6.90;99.90
23839;DHT22;12100;44.384;20.272;2022-11-15T01:24:56;6.90;99.90
23839;DHT22;12100;44.384;20.272;2022-11-15T01:27:22;6.90;99.90
23839;DHT22;12100;44.384;20.272;2022-11-15T01:29:48;6.90;99.90
23839;DHT22;12100;44.384;20.272;2022-11-15T01:32:14;6.90;99.90
23839;DHT22;12100;44.384;20.272;2022-11-15T01:34:40;6.90;99.90
23839;DHT22;12100;44.384;20.272;2022-11-15T01:37:05;6.80;99.90
23839;DHT22;12100;44.384;20.272;2022-11-15T01:39:31;6.80;99.90
23839;DHT22;12100;44.384;20.272;2022-11-15T01:41:57;6.80;99.90
23839;DHT22;12100;44.384;20.272;2022-11-15T01:44:48;6.80;99.90
23839;DHT22;12100;44.384;20.272;2022-11-15T01:47:22;6.80;99.90
23839;DHT22;12100;44.384;20.272;2022-11-15T01:50:16;6.80;99.90
23839;DHT22;12100;44.384;20.272;2022-11-15T01:52:43;6.80;99.90
23839;DHT22;12100;44.384;20.272;2022-11-15T01:55:19;6.70;99.90
23839;DHT22;12100;44.384;20.272;2022-11-15T01:57:46;6.80;99.90
23839;DHT22;12100;44.384;20.272;2022-11-15T02:00:13;6.70;99.90
23839;DHT22;12100;44.384;20.272;2022-11-15T02:02:39;6.80;99.90
23839;DHT22;12100;44.384;20.272;2022-11-15T02:05:05;6.80;99.90
23839;DHT22;12100;44.384;20.272;2022-11-15T02:07:33;6.80;99.90
23839;DHT22;12100;44.384;20.272;2022-11-15T02:10:04;6.80;99.90
23839;DHT22;12100;44.384;20.272;2022-11-15T02:12:32;6.80;99.90
23839;DHT22;12100;44.384;20.272;2022-11-15T02:14:58;6.80;99.90
23839;DHT22;12100;44.384;20.272;2022-11-15T02:20:13;6.80;99.90
23839;DHT22;12100;44.384;20.272;2022-11-15T02:31:36;6.90;99.90
23839;DHT22;12100;44.384;20.272;2022-11-15T02:42:39;6.90;99.90
23839;DHT22;12100;44.384;20.272;2022-11-15T02:45:28;7.00;99.90
23839;DHT22;12100;44.384;20.272;2022-11-15T02:47:57;6.90;99.90
23839;DHT22;12100;44.384;20.272;2022-11-15T02:50:27;7.00;99.90
23839;DHT22;12100;44.384;20.272;2022-11-15T02:52:54;7.00;99.90
23839;DHT22;12100;44.384;20.272;2022-11-15T02:55:34;7.00;99.90
23839;DHT22;12100;44.384;20.272;2022-11-15T03:03:42;7.10;99.90
23839;DHT22;12100;44.384;20.272;2022-11-15T03:08:55;7.20;99.90
23839;DHT22;12100;44.384;20.272;2022-11-15T03:11:23;7.20;99.90
23839;DHT22;12100;44.384;20.272;2022-11-15T03:19:45;7.20;99.90
23839;DHT22;12100;44.384;20.272;2022-11-15T03:22:16;7.10;99.90
23839;DHT22;12100;44.384;20.272;2022-11-15T03:24:45;7.10;99.90
23839;DHT22;12100;44.384;20.272;2022-11-15T03:27:15;7.10;99.90
23839;DHT22;12100;44.384;20.272;2022-11-15T03:29:48;7.10;99.90
23839;DHT22;12100;44.384;20.272;2022-11-15T03:32:16;7.10;99.90
23839;DHT22;12100;44.384;20.272;2022-11-15T03:35:06;7.10;99.90
23839;DHT22;12100;44.384;20.272;2022-11-15T03:40:40;7.10;99.90
23839;DHT22;12100;44.384;20.272;2022-11-15T03:43:20;7.10;99.90
23839;DHT22;12100;44.384;20.272;2022-11-15T03:46:10;7.10;99.90
23839;DHT22;12100;44.384;20.272;2022-11-15T03:48:41;7.20;99.90
23839;DHT22;12100;44.384;20.272;2022-11-15T03:51:10;7.20;99.90
23839;DHT22;12100;44.384;20.272;2022-11-15T03:53:36;7.20;99.90
23839;DHT22;12100;44.384;20.272;2022-11-15T03:56:02;7.20;99.90
23839;DHT22;12100;44.384;20.272;2022-11-15T03:58:28;7.20;99.90
23839;DHT22;12100;44.384;20.272;2022-11-15T04:00:54;7.20;99.90
23839;DHT22;12100;44.384;20.272;2022-11-15T04:03:20;7.20;99.90
23839;DHT22;12100;44.384;20.272;2022-11-15T04:05:45;7.20;99.90
23839;DHT22;12100;44.384;20.272;2022-11-15T04:08:11;7.20;99.90
23839;DHT22;12100;44.384;20.272;2022-11-15T04:10:37;7.20;99.90
23839;DHT22;12100;44.384;20.272;2022-11-15T04:13:03;7.30;99.90
23839;DHT22;12100;44.384;20.272;2022-11-15T04:15:29;7.30;99.90
23839;DHT22;12100;44.384;20.272;2022-11-15T04:17:57;7.30;99.90
23839;DHT22;12100;44.384;20.272;2022-11-15T04:20:25;7.30;99.90
23839;DHT22;12100;44.384;20.272;2022-11-15T04:23:18;7.30;99.90
23839;DHT22;12100;44.384;20.272;2022-11-15T04:26:12;7.30;99.90
23839;DHT22;12100;44.384;20.272;2022-11-15T04:28:38;7.40;99.90
23839;DHT22;12100;44.384;20.272;2022-11-15T04:31:23;7.40;99.90
23839;DHT22;12100;44.384;20.272;2022-11-15T04:33:48;7.40;99.90
23839;DHT22;12100;44.384;20.272;2022-11-15T04:36:14;7.40;99.90
23839;DHT22;12100;44.384;20.272;2022-11-15T04:38:58;7.40;99.90
23839;DHT22;12100;44.384;20.272;2022-11-15T04:41:24;7.40;99.90
23839;DHT22;12100;44.384;20.272;2022-11-15T04:43:50;7.50;99.90
23839;DHT22;12100;44.384;20.272;2022-11-15T04:46:16;7.50;99.90
23839;DHT22;12100;44.384;20.272;2022-11-15T04:48:42;7.50;99.90
23839;DHT22;12100;44.384;20.272;2022-11-15T04:51:07;7.50;99.90
23839;DHT22;12100;44.384;20.272;2022-11-15T04:53:33;7.50;99.90
23839;DHT22;12100;44.384;20.272;2022-11-15T04:55:59;7.60;99.90
23839;DHT22;12100;44.384;20.272;2022-11-15T04:58:25;7.50;99.90
23839;DHT22;12100;44.384;20.272;2022-11-15T05:00:51;7.60;99.90
23839;DHT22;12100;44.384;20.272;2022-11-15T05:03:16;7.60;99.90
23839;DHT22;12100;44.384;20.272;2022-11-15T05:06:06;7.60;99.90
23839;DHT22;12100;44.384;20.272;2022-11-15T05:08:32;7.60;99.90
23839;DHT22;12100;44.384;20.272;2022-11-15T05:10:58;7.60;99.90
23839;DHT22;12100;44.384;20.272;2022-11-15T05:13:23;7.60;99.90
23839;DHT22;12100;44.384;20.272;2022-11-15T05:15:49;7.60;99.90
23839;DHT22;12100;44.384;20.272;2022-11-15T05:18:15;7.60;99.90
23839;DHT22;12100;44.384;20.272;2022-11-15T05:20:41;7.60;99.90
23839;DHT22;12100;44.384;20.272;2022-11-15T05:23:07;7.50;99.90
23839;DHT22;12100;44.384;20.272;2022-11-15T05:25:33;7.50;99.90
23839;DHT22;12100;44.384;20.272;2022-11-15T05:27:58;7.50;99.90
23839;DHT22;12100;44.384;20.272;2022-11-15T05:30:24;7.40;99.90
23839;DHT22;12100;44.384;20.272;2022-11-15T05:32:50;7.50;99.90
23839;DHT22;12100;44.384;20.272;2022-11-15T05:35:26;7.50;99.90
23839;DHT22;12100;44.384;20.272;2022-11-15T05:37:55;7.50;99.90
23839;DHT22;12100;44.384;20.272;2022-11-15T05:40:21;7.50;99.90
23839;DHT22;12100;44.384;20.272;2022-11-15T05:42:47;7.50;99.90
23839;DHT22;12100;44.384;20.272;2022-11-15T05:45:14;7.50;99.90
23839;DHT22;12100;44.384;20.272;2022-11-15T05:47:40;7.50;99.90
23839;DHT22;12100;44.384;20.272;2022-11-15T05:50:07;7.50;99.90
23839;DHT22;12100;44.384;20.272;2022-11-15T05:52:35;7.60;99.90
23839;DHT22;12100;44.384;20.272;2022-11-15T05:55:03;7.60;99.90
23839;DHT22;12100;44.384;20.272;2022-11-15T05:57:30;7.60;99.90
23839;DHT22;12100;44.384;20.272;2022-11-15T05:59:59;7.60;99.90
23839;DHT22;12100;44.384;20.272;2022-11-15T06:02:25;7.60;99.90
23839;DHT22;12100;44.384;20.272;2022-11-15T06:04:51;7.70;99.90
23839;DHT22;12100;44.384;20.272;2022-11-15T06:07:17;7.70;99.90
23839;DHT22;12100;44.384;20.272;2022-11-15T06:09:43;7.80;99.90
23839;DHT22;12100;44.384;20.272;2022-11-15T06:12:08;7.90;99.90
23839;DHT22;12100;44.384;20.272;2022-11-15T06:14:34;7.90;99.90
23839;DHT22;12100;44.384;20.272;2022-11-15T06:17:00;7.90;99.90
23839;DHT22;12100;44.384;20.272;2022-11-15T06:19:25;8.10;99.90
23839;DHT22;12100;44.384;20.272;2022-11-15T06:21:51;8.20;99.90
23839;DHT22;12100;44.384;20.272;2022-11-15T06:24:17;8.40;99.90
23839;DHT22;12100;44.384;20.272;2022-11-15T06:26:43;8.60;99.90
23839;DHT22;12100;44.384;20.272;2022-11-15T06:29:09;8.60;99.90
23839;DHT22;12100;44.384;20.272;2022-11-15T06:31:34;8.70;99.70
23839;DHT22;12100;44.384;20.272;2022-11-15T06:34:00;9.50;97.90
23839;DHT22;12100;44.384;20.272;2022-11-15T06:36:26;11.70;93.00
23839;DHT22;12100;44.384;20.272;2022-11-15T06:38:52;13.70;83.70
23839;DHT22;12100;44.384;20.272;2022-11-15T06:41:18;14.50;80.30
23839;DHT22;12100;44.384;20.272;2022-11-15T06:43:44;15.30;75.50
23839;DHT22;12100;44.384;20.272;2022-11-15T06:46:10;16.00;71.10
23839;DHT22;12100;44.384;20.272;2022-11-15T06:48:36;14.80;72.10
23839;DHT22;12100;44.384;20.272;2022-11-15T06:51:03;14.60;74.70
23839;DHT22;12100;44.384;20.272;2022-11-15T06:53:30;16.40;69.40
23839;DHT22;12100;44.384;20.272;2022-11-15T06:56:00;18.50;63.00
23839;DHT22;12100;44.384;20.272;2022-11-15T06:58:27;17.90;61.10
23839;DHT22;12100;44.384;20.272;2022-11-15T07:00:52;18.40;60.50
23839;DHT22;12100;44.384;20.272;2022-11-15T07:03:18;18.00;61.60
23839;DHT22;12100;44.384;20.272;2022-11-15T07:05:52;18.10;59.40
23839;DHT22;12100;44.384;20.272;2022-11-15T07:08:18;18.80;59.40
23839;DHT22;12100;44.384;20.272;2022-11-15T07:10:44;19.80;57.50
23839;DHT22;12100;44.384;20.272;2022-11-15T07:13:10;20.40;55.00
23839;DHT22;12100;44.384;20.272;2022-11-15T07:15:36;19.80;55.20
23839;DHT22;12100;44.384;20.272;2022-11-15T07:18:02;20.10;53.70
23839;DHT22;12100;44.384;20.272;2022-11-15T07:20:27;20.30;54.30
23839;DHT22;12100;44.384;20.272;2022-11-15T07:23:00;21.40;51.60
23839;DHT22;12100;44.384;20.272;2022-11-15T07:25:27;20.00;53.10
23839;DHT22;12100;44.384;20.272;2022-11-15T07:27:57;21.00;52.00
23839;DHT22;12100;44.384;20.272;2022-11-15T07:30:23;19.30;54.20
23839;DHT22;12100;44.384;20.272;2022-11-15T07:33:07;18.30;57.60
23839;DHT22;12100;44.384;20.272;2022-11-15T07:35:33;18.00;56.90
23839;DHT22;12100;44.384;20.272;2022-11-15T07:38:00;18.50;57.70
23839;DHT22;12100;44.384;20.272;2022-11-15T07:40:29;18.30;58.00
23839;DHT22;12100;44.384;20.272;2022-11-15T07:43:06;19.40;55.60
23839;DHT22;12100;44.384;20.272;2022-11-15T07:45:33;18.50;57.20
23839;DHT22;12100;44.384;20.272;2022-11-15T07:48:00;18.00;57.30
23839;DHT22;12100;44.384;20.272;2022-11-15T07:50:26;19.00;56.70
23839;DHT22;12100;44.384;20.272;2022-11-15T07:52:55;18.60;56.60
23839;DHT22;12100;44.384;20.272;2022-11-15T07:55:23;19.70;54.60
23839;DHT22;12100;44.384;20.272;2022-11-15T07:57:49;19.90;55.20
23839;DHT22;12100;44.384;20.272;2022-11-15T08:00:15;18.80;55.30
23839;DHT22;12100;44.384;20.272;2022-11-15T08:02:42;19.90;54.60
23839;DHT22;12100;44.384;20.272;2022-11-15T08:05:08;19.60;53.30
23839;DHT22;12100;44.384;20.272;2022-11-15T08:07:34;19.80;53.30
23839;DHT22;12100;44.384;20.272;2022-11-15T08:10:00;20.90;52.60
23839;DHT22;12100;44.384;20.272;2022-11-15T08:12:27;20.20;53.30
23839;DHT22;12100;44.384;20.272;2022-11-15T08:14:55;20.80;53.60
23839;DHT22;12100;44.384;20.272;2022-11-15T08:17:22;21.30;51.40
23839;DHT22;12100;44.384;20.272;2022-11-15T08:19:48;21.60;50.20
23839;DHT22;12100;44.384;20.272;2022-11-15T08:22:13;21.60;51.10
23839;DHT22;12100;44.384;20.272;2022-11-15T08:24:39;20.70;52.70
23839;DHT22;12100;44.384;20.272;2022-11-15T08:27:05;20.10;54.40
23839;DHT22;12100;44.384;20.272;2022-11-15T08:29:43;19.50;54.90
23839;DHT22;12100;44.384;20.272;2022-11-15T08:32:10;19.40;54.80
23839;DHT22;12100;44.384;20.272;2022-11-15T08:34:37;18.70;56.30
23839;DHT22;12100;44.384;20.272;2022-11-15T08:37:02;19.30;56.00
23839;DHT22;12100;44.384;20.272;2022-11-15T08:39:28;19.10;56.50
23839;DHT22;12100;44.384;20.272;2022-11-15T08:41:54;19.90;55.10
23839;DHT22;12100;44.384;20.272;2022-11-15T08:44:20;19.60;54.00
23839;DHT22;12100;44.384;20.272;2022-11-15T08:46:46;19.90;54.80
23839;DHT22;12100;44.384;20.272;2022-11-15T08:49:11;20.00;54.50
23839;DHT22;12100;44.384;20.272;2022-11-15T08:51:37;20.20;53.60
23839;DHT22;12100;44.384;20.272;2022-11-15T08:54:03;20.50;52.80
23839;DHT22;12100;44.384;20.272;2022-11-15T08:56:29;20.00;54.40
23839;DHT22;12100;44.384;20.272;2022-11-15T08:58:55;19.70;56.00
23839;DHT22;12100;44.384;20.272;2022-11-15T09:01:21;20.30;54.30
23839;DHT22;12100;44.384;20.272;2022-11-15T09:03:47;19.90;54.90
23839;DHT22;12100;44.384;20.272;2022-11-15T09:06:13;20.20;54.40
23839;DHT22;12100;44.384;20.272;2022-11-15T09:08:38;20.60;53.60
23839;DHT22;12100;44.384;20.272;2022-11-15T09:11:08;19.30;54.70
23839;DHT22;12100;44.384;20.272;2022-11-15T09:13:36;20.20;55.00
23839;DHT22;12100;44.384;20.272;2022-11-15T09:16:04;20.00;54.80
23839;DHT22;12100;44.384;20.272;2022-11-15T09:18:30;18.30;57.30
23839;DHT22;12100;44.384;20.272;2022-11-15T09:20:59;20.60;55.20
23839;DHT22;12100;44.384;20.272;2022-11-15T09:23:26;19.00;56.20
23839;DHT22;12100;44.384;20.272;2022-11-15T09:25:52;17.50;60.80
23839;DHT22;12100;44.384;20.272;2022-11-15T09:28:19;16.90;63.20
23839;DHT22;12100;44.384;20.272;2022-11-15T09:30:44;16.30;66.40
23839;DHT22;12100;44.384;20.272;2022-11-15T09:33:11;14.90;69.70
23839;DHT22;12100;44.384;20.272;2022-11-15T09:35:37;14.50;72.20
23839;DHT22;12100;44.384;20.272;2022-11-15T09:38:03;14.40;73.50
23839;DHT22;12100;44.384;20.272;2022-11-15T09:40:31;14.10;74.70
23839;DHT22;12100;44.384;20.272;2022-11-15T09:43:14;14.00;74.70
23839;DHT22;12100;44.384;20.272;2022-11-15T09:48:50;14.30;74.40
23839;DHT22;12100;44.384;20.272;2022-11-15T09:51:39;15.10;72.50
23839;DHT22;12100;44.384;20.272;2022-11-15T09:56:41;18.50;62.80
23839;DHT22;12100;44.384;20.272;2022-11-15T09:59:35;18.70;59.00
23839;DHT22;12100;44.384;20.272;2022-11-15T10:05:03;20.70;53.90
23839;DHT22;12100;44.384;20.272;2022-11-15T10:07:46;20.90;54.70
23839;DHT22;12100;44.384;20.272;2022-11-15T10:10:22;20.00;55.40
23839;DHT22;12100;44.384;20.272;2022-11-15T10:12:51;19.40;56.00
23839;DHT22;12100;44.384;20.272;2022-11-15T10:15:18;18.90;57.60
23839;DHT22;12100;44.384;20.272;2022-11-15T10:18:19;18.50;59.50
23839;DHT22;12100;44.384;20.272;2022-11-15T10:20:52;17.40;61.70
23839;DHT22;12100;44.384;20.272;2022-11-15T10:23:21;17.70;61.20
23839;DHT22;12100;44.384;20.272;2022-11-15T10:25:51;17.30;64.00
23839;DHT22;12100;44.384;20.272;2022-11-15T10:30:53;17.10;65.10
23839;DHT22;12100;44.384;20.272;2022-11-15T10:33:26;16.80;66.70
23839;DHT22;12100;44.384;20.272;2022-11-15T10:36:20;17.20;64.30
23839;DHT22;12100;44.384;20.272;2022-11-15T10:54:40;16.40;69.00
23839;DHT22;12100;44.384;20.272;2022-11-15T10:57:14;16.40;68.10
23839;DHT22;12100;44.384;20.272;2022-11-15T10:59:53;16.10;68.90
23839;DHT22;12100;44.384;20.272;2022-11-15T11:02:45;15.80;70.00
23839;DHT22;12100;44.384;20.272;2022-11-15T11:05:31;15.50;71.40
23839;DHT22;12100;44.384;20.272;2022-11-15T11:08:24;15.20;72.40
23839;DHT22;12100;44.384;20.272;2022-11-15T11:10:57;15.10;73.10
23839;DHT22;12100;44.384;20.272;2022-11-15T11:13:26;15.20;73.30
23839;DHT22;12100;44.384;20.272;2022-11-15T11:19:04;15.20;74.30
23839;DHT22;12100;44.384;20.272;2022-11-15T11:24:36;15.10;74.90
23839;DHT22;12100;44.384;20.272;2022-11-15T11:30:02;14.60;76.20
23839;DHT22;12100;44.384;20.272;2022-11-15T11:35:13;14.60;76.60
23839;DHT22;12100;44.384;20.272;2022-11-15T11:37:57;14.70;76.10
23839;DHT22;12100;44.384;20.272;2022-11-15T11:40:37;15.00;76.50
23839;DHT22;12100;44.384;20.272;2022-11-15T11:49:07;15.10;75.50
23839;DHT22;12100;44.384;20.272;2022-11-15T11:51:43;15.20;75.40
23839;DHT22;12100;44.384;20.272;2022-11-15T11:54:37;15.10;75.50
23839;DHT22;12100;44.384;20.272;2022-11-15T11:57:10;14.90;76.50
23839;DHT22;12100;44.384;20.272;2022-11-15T11:59:50;14.70;77.20
23839;DHT22;12100;44.384;20.272;2022-11-15T12:03:14;14.70;77.10
23839;DHT22;12100;44.384;20.272;2022-11-15T12:05:40;14.60;77.50
23839;DHT22;12100;44.384;20.272;2022-11-15T12:10:53;14.30;78.40
23839;DHT22;12100;44.384;20.272;2022-11-15T12:13:25;14.10;78.20
23839;DHT22;12100;44.384;20.272;2022-11-15T12:15:59;14.10;79.00
23839;DHT22;12100;44.384;20.272;2022-11-15T12:18:28;14.10;79.70
23839;DHT22;12100;44.384;20.272;2022-11-15T12:23:28;14.20;81.10
23839;DHT22;12100;44.384;20.272;2022-11-15T12:26:09;14.20;84.50
23839;DHT22;12100;44.384;20.272;2022-11-15T12:34:47;14.00;80.30
23839;DHT22;12100;44.384;20.272;2022-11-15T12:36:49;13.90;80.70
23839;DHT22;12100;44.384;20.272;2022-11-15T12:39:16;13.90;81.20
23839;DHT22;12100;44.384;20.272;2022-11-15T12:59:51;13.10;83.80
23839;DHT22;12100;44.384;20.272;2022-11-15T13:02:21;12.90;84.40
23839;DHT22;12100;44.384;20.272;2022-11-15T13:04:49;12.90;84.40
23839;DHT22;12100;44.384;20.272;2022-11-15T13:10:31;12.70;84.90
23839;DHT22;12100;44.384;20.272;2022-11-15T13:13:08;12.70;85.10
23839;DHT22;12100;44.384;20.272;2022-11-15T13:18:30;12.50;85.50
23839;DHT22;12100;44.384;20.272;2022-11-15T13:20:57;12.40;86.20
23839;DHT22;12100;44.384;20.272;2022-11-15T13:23:23;12.30;86.50
23839;DHT22;12100;44.384;20.272;2022-11-15T13:25:58;12.20;87.00
23839;DHT22;12100;44.384;20.272;2022-11-15T13:34:03;12.10;87.60
23839;DHT22;12100;44.384;20.272;2022-11-15T13:36:38;12.10;88.00
23839;DHT22;12100;44.384;20.272;2022-11-15T13:41:52;12.20;88.00
23839;DHT22;12100;44.384;20.272;2022-11-15T13:44:24;12.20;88.40
23839;DHT22;12100;44.384;20.272;2022-11-15T13:49:36;12.20;87.80
23839;DHT22;12100;44.384;20.272;2022-11-15T13:52:05;11.90;88.40
23839;DHT22;12100;44.384;20.272;2022-11-15T13:54:41;12.10;88.40
23839;DHT22;12100;44.384;20.272;2022-11-15T13:57:14;12.00;88.40
23839;DHT22;12100;44.384;20.272;2022-11-15T14:02:52;11.90;88.40
23839;DHT22;12100;44.384;20.272;2022-11-15T14:05:20;11.60;89.60
23839;DHT22;12100;44.384;20.272;2022-11-15T14:07:58;11.60;90.10
23839;DHT22;12100;44.384;20.272;2022-11-15T14:10:35;11.70;90.00
23839;DHT22;12100;44.384;20.272;2022-11-15T14:13:02;11.80;89.70
23839;DHT22;12100;44.384;20.272;2022-11-15T14:15:36;11.90;89.80
23839;DHT22;12100;44.384;20.272;2022-11-15T14:18:03;11.90;89.20
23839;DHT22;12100;44.384;20.272;2022-11-15T14:20:36;11.80;89.40
23839;DHT22;12100;44.384;20.272;2022-11-15T14:23:25;11.70;90.10
23839;DHT22;12100;44.384;20.272;2022-11-15T14:25:56;11.80;90.00
23839;DHT22;12100;44.384;20.272;2022-11-15T14:30:48;11.80;90.10
23839;DHT22;12100;44.384;20.272;2022-11-15T14:33:31;11.70;90.30
23839;DHT22;12100;44.384;20.272;2022-11-15T14:36:19;11.40;90.50
23839;DHT22;12100;44.384;20.272;2022-11-15T14:38:45;11.40;90.90
23839;DHT22;12100;44.384;20.272;2022-11-15T14:41:22;11.10;91.30
23839;DHT22;12100;44.384;20.272;2022-11-15T14:43:49;10.90;91.70
23839;DHT22;12100;44.384;20.272;2022-11-15T14:46:15;10.80;92.10
23839;DHT22;12100;44.384;20.272;2022-11-15T14:48:41;10.70;92.50
23839;DHT22;12100;44.384;20.272;2022-11-15T14:51:15;10.60;92.70
23839;DHT22;12100;44.384;20.272;2022-11-15T14:53:42;10.60;93.00
23839;DHT22;12100;44.384;20.272;2022-11-15T14:56:09;10.50;93.30
23839;DHT22;12100;44.384;20.272;2022-11-15T14:58:35;10.40;93.40
23839;DHT22;12100;44.384;20.272;2022-11-15T15:01:24;10.40;93.70
23839;DHT22;12100;44.384;20.272;2022-11-15T15:03:48;10.40;93.90
23839;DHT22;12100;44.384;20.272;2022-11-15T15:06:14;10.30;94.20
23839;DHT22;12100;44.384;20.272;2022-11-15T15:08:40;10.20;94.50
23839;DHT22;12100;44.384;20.272;2022-11-15T15:11:35;10.10;94.90
23839;DHT22;12100;44.384;20.272;2022-11-15T15:14:01;10.10;95.40
23839;DHT22;12100;44.384;20.272;2022-11-15T15:16:27;10.00;95.50
23839;DHT22;12100;44.384;20.272;2022-11-15T15:18:54;9.90;96.00
23839;DHT22;12100;44.384;20.272;2022-11-15T15:21:22;9.80;96.60
23839;DHT22;12100;44.384;20.272;2022-11-15T15:23:49;9.80;97.00
23839;DHT22;12100;44.384;20.272;2022-11-15T15:26:15;9.70;97.30
23839;DHT22;12100;44.384;20.272;2022-11-15T15:28:40;9.70;97.80
23839;DHT22;12100;44.384;20.272;2022-11-15T15:31:07;9.70;98.40
23839;DHT22;12100;44.384;20.272;2022-11-15T15:33:33;9.70;98.60
23839;DHT22;12100;44.384;20.272;2022-11-15T15:35:59;9.70;98.70
23839;DHT22;12100;44.384;20.272;2022-11-15T15:38:25;9.70;98.80
23839;DHT22;12100;44.384;20.272;2022-11-15T15:40:51;9.80;98.80
23839;DHT22;12100;44.384;20.272;2022-11-15T15:43:17;9.70;99.20
23839;DHT22;12100;44.384;20.272;2022-11-15T15:45:42;9.70;99.30
23839;DHT22;12100;44.384;20.272;2022-11-15T15:48:14;9.70;99.60
23839;DHT22;12100;44.384;20.272;2022-11-15T15:50:40;9.80;99.70
23839;DHT22;12100;44.384;20.272;2022-11-15T15:53:08;9.80;99.70
23839;DHT22;12100;44.384;20.272;2022-11-15T15:55:36;9.80;99.60
23839;DHT22;12100;44.384;20.272;2022-11-15T15:58:02;9.90;99.40
23839;DHT22;12100;44.384;20.272;2022-11-15T16:00:28;9.80;99.40
23839;DHT22;12100;44.384;20.272;2022-11-15T16:02:54;9.70;99.80
23839;DHT22;12100;44.384;20.272;2022-11-15T16:05:21;9.70;99.90
23839;DHT22;12100;44.384;20.272;2022-11-15T16:07:48;9.70;99.90
23839;DHT22;12100;44.384;20.272;2022-11-15T16:10:20;9.60;99.90
23839;DHT22;12100;44.384;20.272;2022-11-15T16:12:47;9.50;99.90
23839;DHT22;12100;44.384;20.272;2022-11-15T16:15:13;9.40;99.90
23839;DHT22;12100;44.384;20.272;2022-11-15T16:18:00;9.40;99.90
23839;DHT22;12100;44.384;20.272;2022-11-15T16:20:37;9.40;99.90
23839;DHT22;12100;44.384;20.272;2022-11-15T16:23:06;9.30;99.90
23839;DHT22;12100;44.384;20.272;2022-11-15T16:25:55;9.40;99.90
23839;DHT22;12100;44.384;20.272;2022-11-15T16:30:49;9.40;99.90
23839;DHT22;12100;44.384;20.272;2022-11-15T16:33:15;9.40;99.90
23839;DHT22;12100;44.384;20.272;2022-11-15T16:35:43;9.50;99.90
23839;DHT22;12100;44.384;20.272;2022-11-15T16:38:14;9.50;99.90
23839;DHT22;12100;44.384;20.272;2022-11-15T16:40:40;9.40;99.90
23839;DHT22;12100;44.384;20.272;2022-11-15T16:43:06;9.50;99.90
23839;DHT22;12100;44.384;20.272;2022-11-15T16:45:34;9.50;99.90
23839;DHT22;12100;44.384;20.272;2022-11-15T16:48:00;9.60;99.90
23839;DHT22;12100;44.384;20.272;2022-11-15T16:50:29;9.70;99.90
23839;DHT22;12100;44.384;20.272;2022-11-15T16:52:57;9.70;99.90
23839;DHT22;12100;44.384;20.272;2022-11-15T16:55:26;9.80;99.90
23839;DHT22;12100;44.384;20.272;2022-11-15T16:57:53;9.70;99.90
23839;DHT22;12100;44.384;20.272;2022-11-15T17:00:20;9.70;99.90
23839;DHT22;12100;44.384;20.272;2022-11-15T17:02:48;9.50;99.90
23839;DHT22;12100;44.384;20.272;2022-11-15T17:05:17;9.40;99.90
23839;DHT22;12100;44.384;20.272;2022-11-15T17:07:46;9.30;99.90
23839;DHT22;12100;44.384;20.272;2022-11-15T17:10:19;9.20;99.90
23839;DHT22;12100;44.384;20.272;2022-11-15T17:12:45;9.00;99.90
23839;DHT22;12100;44.384;20.272;2022-11-15T17:15:12;9.10;99.90
23839;DHT22;12100;44.384;20.272;2022-11-15T17:17:39;9.10;99.90
23839;DHT22;12100;44.384;20.272;2022-11-15T17:20:06;9.10;99.90
23839;DHT22;12100;44.384;20.272;2022-11-15T17:22:37;9.10;99.90
23839;DHT22;12100;44.384;20.272;2022-11-15T17:25:03;9.10;99.90
23839;DHT22;12100;44.384;20.272;2022-11-15T17:27:30;9.10;99.90
23839;DHT22;12100;44.384;20.272;2022-11-15T17:29:56;9.10;99.90
23839;DHT22;12100;44.384;20.272;2022-11-15T17:32:22;9.20;99.90
23839;DHT22;12100;44.384;20.272;2022-11-15T17:34:47;9.20;99.90
23839;DHT22;12100;44.384;20.272;2022-11-15T17:37:13;9.30;99.90
23839;DHT22;12100;44.384;20.272;2022-11-15T17:39:39;9.30;99.90
23839;DHT22;12100;44.384;20.272;2022-11-15T17:42:05;9.30;99.90
23839;DHT22;12100;44.384;20.272;2022-11-15T17:44:31;9.40;99.90
23839;DHT22;12100;44.384;20.272;2022-11-15T17:46:57;9.30;99.90
23839;DHT22;12100;44.384;20.272;2022-11-15T17:49:23;9.30;99.90
23839;DHT22;12100;44.384;20.272;2022-11-15T17:51:49;9.30;99.90
23839;DHT22;12100;44.384;20.272;2022-11-15T17:54:15;9.30;99.90
23839;DHT22;12100;44.384;20.272;2022-11-15T17:56:41;9.40;99.90